sensor_id;sensor_type;location;lat;lon;timestamp;P1;durP1;ratioP1;P2;durP2;ratioP2
24407;SDS011;12542;50.924;4.516;2023-08-01T00:01:36;3.47;;;1.05;;
24407;SDS011;12542;50.924;4.516;2023-08-01T00:04:02;3.63;;;1.25;;
24407;SDS011;12542;50.924;4.516;2023-08-01T00:06:27;3.88;;;1.17;;
24407;SDS011;12542;50.924;4.516;2023-08-01T00:08:53;3.58;;;1.10;;
24407;SDS011;12542;50.924;4.516;2023-08-01T00:11:18;4.32;;;1.67;;
24407;SDS011;12542;50.924;4.516;2023-08-01T00:13:44;5.55;;;1.30;;
24407;SDS011;12542;50.924;4.516;2023-08-01T00:16:10;1.77;;;0.90;;
24407;SDS011;12542;50.924;4.516;2023-08-01T00:18:35;2.60;;;1.13;;
24407;SDS011;12542;50.924;4.516;2023-08-01T00:21:01;3.72;;;1.05;;
24407;SDS011;12542;50.924;4.516;2023-08-01T00:23:34;9.52;;;1.58;;
24407;SDS011;12542;50.924;4.516;2023-08-01T00:26:00;3.92;;;1.27;;
24407;SDS011;12542;50.924;4.516;2023-08-01T00:28:26;3.72;;;1.52;;
24407;SDS011;12542;50.924;4.516;2023-08-01T00:31:01;6.07;;;1.38;;
24407;SDS011;12542;50.924;4.516;2023-08-01T00:33:30;4.40;;;1.25;;
24407;SDS011;12542;50.924;4.516;2023-08-01T00:35:56;5.88;;;1.35;;
24407;SDS011;12542;50.924;4.516;2023-08-01T00:38:22;7.35;;;1.80;;
24407;SDS011;12542;50.924;4.516;2023-08-01T00:40:49;6.35;;;1.70;;
24407;SDS011;12542;50.924;4.516;2023-08-01T00:43:15;4.88;;;1.60;;
24407;SDS011;12542;50.924;4.516;2023-08-01T00:45:41;6.07;;;1.70;;
24407;SDS011;12542;50.924;4.516;2023-08-01T00:48:07;3.47;;;1.83;;
24407;SDS011;12542;50.924;4.516;2023-08-01T00:50:35;4.97;;;1.52;;
24407;SDS011;12542;50.924;4.516;2023-08-01T00:53:01;4.13;;;1.43;;
24407;SDS011;12542;50.924;4.516;2023-08-01T00:55:27;4.32;;;1.60;;
24407;SDS011;12542;50.924;4.516;2023-08-01T00:57:55;5.68;;;1.92;;
24407;SDS011;12542;50.924;4.516;2023-08-01T01:00:21;5.65;;;1.48;;
24407;SDS011;12542;50.924;4.516;2023-08-01T01:02:46;8.40;;;2.10;;
24407;SDS011;12542;50.924;4.516;2023-08-01T01:05:12;5.50;;;2.20;;
24407;SDS011;12542;50.924;4.516;2023-08-01T01:07:39;6.80;;;1.83;;
24407;SDS011;12542;50.924;4.516;2023-08-01T01:10:05;5.65;;;1.90;;
24407;SDS011;12542;50.924;4.516;2023-08-01T01:12:31;9.50;;;2.17;;
24407;SDS011;12542;50.924;4.516;2023-08-01T01:14:56;5.00;;;2.15;;
24407;SDS011;12542;50.924;4.516;2023-08-01T01:17:22;7.38;;;2.42;;
24407;SDS011;12542;50.924;4.516;2023-08-01T01:19:48;6.10;;;2.15;;
24407;SDS011;12542;50.924;4.516;2023-08-01T01:22:13;5.25;;;2.25;;
24407;SDS011;12542;50.924;4.516;2023-08-01T01:24:40;7.13;;;2.42;;
24407;SDS011;12542;50.924;4.516;2023-08-01T01:27:07;5.28;;;2.25;;
24407;SDS011;12542;50.924;4.516;2023-08-01T01:29:33;6.43;;;2.40;;
24407;SDS011;12542;50.924;4.516;2023-08-01T01:32:02;9.10;;;2.72;;
24407;SDS011;12542;50.924;4.516;2023-08-01T01:34:29;8.10;;;2.58;;
24407;SDS011;12542;50.924;4.516;2023-08-01T01:36:55;13.25;;;2.80;;
24407;SDS011;12542;50.924;4.516;2023-08-01T01:39:21;6.40;;;2.95;;
24407;SDS011;12542;50.924;4.516;2023-08-01T01:41:47;5.80;;;2.55;;
24407;SDS011;12542;50.924;4.516;2023-08-01T01:44:12;10.10;;;2.90;;
24407;SDS011;12542;50.924;4.516;2023-08-01T01:46:38;9.70;;;2.72;;
24407;SDS011;12542;50.924;4.516;2023-08-01T01:49:04;8.15;;;2.30;;
24407;SDS011;12542;50.924;4.516;2023-08-01T01:51:29;6.28;;;2.75;;
24407;SDS011;12542;50.924;4.516;2023-08-01T01:53:55;11.35;;;2.72;;
24407;SDS011;12542;50.924;4.516;2023-08-01T01:56:21;6.32;;;2.45;;
24407;SDS011;12542;50.924;4.516;2023-08-01T01:58:47;6.45;;;2.80;;
24407;SDS011;12542;50.924;4.516;2023-08-01T02:01:13;10.93;;;3.67;;
24407;SDS011;12542;50.924;4.516;2023-08-01T02:03:42;5.72;;;3.28;;
24407;SDS011;12542;50.924;4.516;2023-08-01T02:06:07;9.25;;;3.17;;
24407;SDS011;12542;50.924;4.516;2023-08-01T02:08:33;10.02;;;3.83;;
24407;SDS011;12542;50.924;4.516;2023-08-01T02:10:59;9.55;;;3.67;;
24407;SDS011;12542;50.924;4.516;2023-08-01T02:13:25;8.02;;;3.83;;
24407;SDS011;12542;50.924;4.516;2023-08-01T02:15:52;10.13;;;3.60;;
24407;SDS011;12542;50.924;4.516;2023-08-01T02:18:18;7.53;;;3.25;;
24407;SDS011;12542;50.924;4.516;2023-08-01T02:20:47;13.18;;;3.30;;
24407;SDS011;12542;50.924;4.516;2023-08-01T02:23:13;8.32;;;3.67;;
24407;SDS011;12542;50.924;4.516;2023-08-01T02:25:39;6.70;;;3.00;;
24407;SDS011;12542;50.924;4.516;2023-08-01T02:28:05;7.10;;;3.10;;
24407;SDS011;12542;50.924;4.516;2023-08-01T02:30:37;13.60;;;3.72;;
24407;SDS011;12542;50.924;4.516;2023-08-01T02:33:03;8.52;;;3.60;;
24407;SDS011;12542;50.924;4.516;2023-08-01T02:35:29;9.75;;;3.53;;
24407;SDS011;12542;50.924;4.516;2023-08-01T02:37:57;9.25;;;3.50;;
24407;SDS011;12542;50.924;4.516;2023-08-01T02:40:23;8.57;;;3.00;;
24407;SDS011;12542;50.924;4.516;2023-08-01T02:42:49;11.20;;;4.07;;
24407;SDS011;12542;50.924;4.516;2023-08-01T02:45:14;9.52;;;4.05;;
24407;SDS011;12542;50.924;4.516;2023-08-01T02:47:40;10.60;;;4.45;;
24407;SDS011;12542;50.924;4.516;2023-08-01T02:50:06;11.77;;;4.13;;
24407;SDS011;12542;50.924;4.516;2023-08-01T02:52:32;12.30;;;4.28;;
24407;SDS011;12542;50.924;4.516;2023-08-01T02:54:57;9.13;;;4.32;;
24407;SDS011;12542;50.924;4.516;2023-08-01T02:57:23;11.85;;;4.47;;
24407;SDS011;12542;50.924;4.516;2023-08-01T02:59:51;11.20;;;5.20;;
24407;SDS011;12542;50.924;4.516;2023-08-01T03:02:19;19.80;;;5.38;;
24407;SDS011;12542;50.924;4.516;2023-08-01T03:04:44;14.15;;;4.97;;
24407;SDS011;12542;50.924;4.516;2023-08-01T03:07:10;10.80;;;4.50;;
24407;SDS011;12542;50.924;4.516;2023-08-01T03:09:36;12.25;;;5.20;;
24407;SDS011;12542;50.924;4.516;2023-08-01T03:12:01;9.70;;;5.10;;
24407;SDS011;12542;50.924;4.516;2023-08-01T03:14:27;12.05;;;5.30;;
24407;SDS011;12542;50.924;4.516;2023-08-01T03:16:53;10.68;;;5.38;;
24407;SDS011;12542;50.924;4.516;2023-08-01T03:19:18;10.43;;;5.45;;
24407;SDS011;12542;50.924;4.516;2023-08-01T03:21:44;12.25;;;5.30;;
24407;SDS011;12542;50.924;4.516;2023-08-01T03:24:10;12.70;;;4.85;;
24407;SDS011;12542;50.924;4.516;2023-08-01T03:26:36;12.70;;;5.22;;
24407;SDS011;12542;50.924;4.516;2023-08-01T03:29:01;8.75;;;5.13;;
24407;SDS011;12542;50.924;4.516;2023-08-01T03:31:30;13.15;;;5.95;;
24407;SDS011;12542;50.924;4.516;2023-08-01T03:33:56;9.38;;;5.20;;
24407;SDS011;12542;50.924;4.516;2023-08-01T03:36:23;14.13;;;5.75;;
24407;SDS011;12542;50.924;4.516;2023-08-01T03:38:49;15.95;;;5.50;;
24407;SDS011;12542;50.924;4.516;2023-08-01T03:41:15;13.27;;;4.90;;
24407;SDS011;12542;50.924;4.516;2023-08-01T03:43:41;9.52;;;5.07;;
24407;SDS011;12542;50.924;4.516;2023-08-01T03:46:07;15.48;;;5.75;;
24407;SDS011;12542;50.924;4.516;2023-08-01T03:48:32;11.13;;;6.10;;
24407;SDS011;12542;50.924;4.516;2023-08-01T03:50:58;18.35;;;6.03;;
24407;SDS011;12542;50.924;4.516;2023-08-01T03:53:24;15.18;;;5.97;;
24407;SDS011;12542;50.924;4.516;2023-08-01T03:55:49;12.38;;;5.57;;
24407;SDS011;12542;50.924;4.516;2023-08-01T03:58:15;14.77;;;5.75;;
24407;SDS011;12542;50.924;4.516;2023-08-01T04:00:41;15.27;;;6.38;;
24407;SDS011;12542;50.924;4.516;2023-08-01T04:03:06;12.18;;;5.07;;
24407;SDS011;12542;50.924;4.516;2023-08-01T04:05:32;18.48;;;6.68;;
24407;SDS011;12542;50.924;4.516;2023-08-01T04:08:00;18.48;;;6.07;;
24407;SDS011;12542;50.924;4.516;2023-08-01T04:10:26;15.82;;;5.55;;
24407;SDS011;12542;50.924;4.516;2023-08-01T04:12:52;11.73;;;5.10;;
24407;SDS011;12542;50.924;4.516;2023-08-01T04:15:18;9.82;;;5.32;;
24407;SDS011;12542;50.924;4.516;2023-08-01T04:17:43;15.05;;;5.72;;
24407;SDS011;12542;50.924;4.516;2023-08-01T04:20:09;14.13;;;5.70;;
24407;SDS011;12542;50.924;4.516;2023-08-01T04:22:35;17.45;;;6.22;;
24407;SDS011;12542;50.924;4.516;2023-08-01T04:25:02;15.13;;;6.03;;
24407;SDS011;12542;50.924;4.516;2023-08-01T04:27:28;16.38;;;5.95;;
24407;SDS011;12542;50.924;4.516;2023-08-01T04:29:55;16.55;;;6.60;;
24407;SDS011;12542;50.924;4.516;2023-08-01T04:32:21;17.65;;;6.95;;
24407;SDS011;12542;50.924;4.516;2023-08-01T04:34:46;16.13;;;7.13;;
24407;SDS011;12542;50.924;4.516;2023-08-01T04:37:12;18.08;;;5.95;;
24407;SDS011;12542;50.924;4.516;2023-08-01T04:39:38;18.70;;;7.70;;
24407;SDS011;12542;50.924;4.516;2023-08-01T04:42:04;12.50;;;5.97;;
24407;SDS011;12542;50.924;4.516;2023-08-01T04:44:30;19.63;;;6.55;;
24407;SDS011;12542;50.924;4.516;2023-08-01T04:46:56;12.57;;;5.75;;
24407;SDS011;12542;50.924;4.516;2023-08-01T04:49:21;15.52;;;6.65;;
24407;SDS011;12542;50.924;4.516;2023-08-01T04:51:48;16.45;;;5.97;;
24407;SDS011;12542;50.924;4.516;2023-08-01T04:54:14;13.73;;;5.75;;
24407;SDS011;12542;50.924;4.516;2023-08-01T04:56:41;17.27;;;6.50;;
24407;SDS011;12542;50.924;4.516;2023-08-01T04:59:07;15.85;;;6.05;;
24407;SDS011;12542;50.924;4.516;2023-08-01T05:01:33;20.38;;;6.32;;
24407;SDS011;12542;50.924;4.516;2023-08-01T05:03:59;14.20;;;6.07;;
24407;SDS011;12542;50.924;4.516;2023-08-01T05:06:26;14.57;;;6.20;;
24407;SDS011;12542;50.924;4.516;2023-08-01T05:08:53;15.73;;;5.88;;
24407;SDS011;12542;50.924;4.516;2023-08-01T05:11:21;17.63;;;5.68;;
24407;SDS011;12542;50.924;4.516;2023-08-01T05:13:48;17.45;;;5.97;;
24407;SDS011;12542;50.924;4.516;2023-08-01T05:16:14;16.00;;;6.63;;
24407;SDS011;12542;50.924;4.516;2023-08-01T05:18:40;13.35;;;5.60;;
24407;SDS011;12542;50.924;4.516;2023-08-01T05:21:06;18.02;;;6.45;;
24407;SDS011;12542;50.924;4.516;2023-08-01T05:23:31;15.73;;;6.45;;
24407;SDS011;12542;50.924;4.516;2023-08-01T05:25:57;15.75;;;5.90;;
24407;SDS011;12542;50.924;4.516;2023-08-01T05:28:23;15.90;;;5.97;;
24407;SDS011;12542;50.924;4.516;2023-08-01T05:30:48;13.98;;;5.85;;
24407;SDS011;12542;50.924;4.516;2023-08-01T05:33:14;14.45;;;4.80;;
24407;SDS011;12542;50.924;4.516;2023-08-01T05:35:39;13.23;;;4.85;;
24407;SDS011;12542;50.924;4.516;2023-08-01T05:38:08;12.48;;;4.68;;
24407;SDS011;12542;50.924;4.516;2023-08-01T05:40:33;12.15;;;4.85;;
24407;SDS011;12542;50.924;4.516;2023-08-01T05:43:04;15.55;;;5.05;;
24407;SDS011;12542;50.924;4.516;2023-08-01T05:45:29;19.55;;;5.22;;
24407;SDS011;12542;50.924;4.516;2023-08-01T05:47:55;12.07;;;5.38;;
24407;SDS011;12542;50.924;4.516;2023-08-01T05:50:20;12.35;;;5.38;;
24407;SDS011;12542;50.924;4.516;2023-08-01T05:52:51;13.65;;;5.03;;
24407;SDS011;12542;50.924;4.516;2023-08-01T05:55:16;10.30;;;5.38;;
24407;SDS011;12542;50.924;4.516;2023-08-01T05:57:42;13.95;;;5.72;;
24407;SDS011;12542;50.924;4.516;2023-08-01T06:00:08;12.65;;;5.60;;
24407;SDS011;12542;50.924;4.516;2023-08-01T06:02:34;12.93;;;5.85;;
24407;SDS011;12542;50.924;4.516;2023-08-01T06:04:59;12.38;;;5.97;;
24407;SDS011;12542;50.924;4.516;2023-08-01T06:07:25;16.15;;;5.90;;
24407;SDS011;12542;50.924;4.516;2023-08-01T06:09:51;14.90;;;6.20;;
24407;SDS011;12542;50.924;4.516;2023-08-01T06:12:19;13.60;;;5.43;;
24407;SDS011;12542;50.924;4.516;2023-08-01T06:14:46;11.98;;;5.15;;
24407;SDS011;12542;50.924;4.516;2023-08-01T06:17:13;14.77;;;4.88;;
24407;SDS011;12542;50.924;4.516;2023-08-01T06:19:39;15.80;;;5.55;;
24407;SDS011;12542;50.924;4.516;2023-08-01T06:22:05;12.63;;;5.47;;
24407;SDS011;12542;50.924;4.516;2023-08-01T06:24:30;14.57;;;4.85;;
24407;SDS011;12542;50.924;4.516;2023-08-01T06:26:56;13.55;;;4.80;;
24407;SDS011;12542;50.924;4.516;2023-08-01T06:29:24;12.40;;;5.10;;
24407;SDS011;12542;50.924;4.516;2023-08-01T06:31:50;11.98;;;4.63;;
24407;SDS011;12542;50.924;4.516;2023-08-01T06:34:15;9.40;;;4.70;;
24407;SDS011;12542;50.924;4.516;2023-08-01T06:36:41;16.58;;;5.50;;
24407;SDS011;12542;50.924;4.516;2023-08-01T06:39:07;13.77;;;5.10;;
24407;SDS011;12542;50.924;4.516;2023-08-01T06:41:35;12.02;;;5.35;;
24407;SDS011;12542;50.924;4.516;2023-08-01T06:44:01;10.63;;;4.88;;
24407;SDS011;12542;50.924;4.516;2023-08-01T06:46:27;12.98;;;5.72;;
24407;SDS011;12542;50.924;4.516;2023-08-01T06:48:53;13.48;;;5.85;;
24407;SDS011;12542;50.924;4.516;2023-08-01T06:51:18;13.75;;;6.00;;
24407;SDS011;12542;50.924;4.516;2023-08-01T06:53:44;17.80;;;5.80;;
24407;SDS011;12542;50.924;4.516;2023-08-01T06:56:09;15.05;;;5.38;;
24407;SDS011;12542;50.924;4.516;2023-08-01T06:58:35;18.08;;;5.80;;
24407;SDS011;12542;50.924;4.516;2023-08-01T07:01:01;12.48;;;5.38;;
24407;SDS011;12542;50.924;4.516;2023-08-01T07:03:26;12.98;;;5.43;;
24407;SDS011;12542;50.924;4.516;2023-08-01T07:05:52;15.90;;;5.82;;
24407;SDS011;12542;50.924;4.516;2023-08-01T07:08:18;10.95;;;5.43;;
24407;SDS011;12542;50.924;4.516;2023-08-01T07:10:46;14.70;;;5.28;;
24407;SDS011;12542;50.924;4.516;2023-08-01T07:13:13;11.15;;;3.95;;
24407;SDS011;12542;50.924;4.516;2023-08-01T07:15:38;13.80;;;5.22;;
24407;SDS011;12542;50.924;4.516;2023-08-01T07:18:04;12.15;;;4.43;;
24407;SDS011;12542;50.924;4.516;2023-08-01T07:20:30;11.35;;;4.10;;
24407;SDS011;12542;50.924;4.516;2023-08-01T07:22:55;10.02;;;4.60;;
24407;SDS011;12542;50.924;4.516;2023-08-01T07:25:21;12.52;;;4.10;;
24407;SDS011;12542;50.924;4.516;2023-08-01T07:27:47;10.38;;;3.72;;
24407;SDS011;12542;50.924;4.516;2023-08-01T07:30:14;16.65;;;4.55;;
24407;SDS011;12542;50.924;4.516;2023-08-01T07:32:39;7.32;;;3.13;;
24407;SDS011;12542;50.924;4.516;2023-08-01T07:35:07;8.10;;;3.20;;
24407;SDS011;12542;50.924;4.516;2023-08-01T07:37:33;7.00;;;2.85;;
24407;SDS011;12542;50.924;4.516;2023-08-01T07:39:59;9.02;;;3.60;;
24407;SDS011;12542;50.924;4.516;2023-08-01T07:42:27;11.35;;;4.00;;
24407;SDS011;12542;50.924;4.516;2023-08-01T07:44:53;12.95;;;3.70;;
24407;SDS011;12542;50.924;4.516;2023-08-01T07:47:19;10.20;;;3.00;;
24407;SDS011;12542;50.924;4.516;2023-08-01T07:49:44;9.50;;;3.63;;
24407;SDS011;12542;50.924;4.516;2023-08-01T07:52:10;7.60;;;3.28;;
24407;SDS011;12542;50.924;4.516;2023-08-01T07:54:36;10.27;;;3.28;;
24407;SDS011;12542;50.924;4.516;2023-08-01T07:57:01;14.27;;;4.13;;
24407;SDS011;12542;50.924;4.516;2023-08-01T07:59:27;13.18;;;3.95;;
24407;SDS011;12542;50.924;4.516;2023-08-01T08:01:53;12.88;;;4.32;;
24407;SDS011;12542;50.924;4.516;2023-08-01T08:04:18;9.27;;;3.95;;
24407;SDS011;12542;50.924;4.516;2023-08-01T08:06:44;17.60;;;5.80;;
24407;SDS011;12542;50.924;4.516;2023-08-01T08:09:10;15.25;;;5.13;;
24407;SDS011;12542;50.924;4.516;2023-08-01T08:11:38;9.00;;;4.97;;
24407;SDS011;12542;50.924;4.516;2023-08-01T08:14:04;9.73;;;5.07;;
24407;SDS011;12542;50.924;4.516;2023-08-01T08:16:29;12.18;;;5.45;;
24407;SDS011;12542;50.924;4.516;2023-08-01T08:18:55;13.20;;;4.72;;
24407;SDS011;12542;50.924;4.516;2023-08-01T08:21:21;10.27;;;4.45;;
24407;SDS011;12542;50.924;4.516;2023-08-01T08:23:46;14.23;;;4.55;;
24407;SDS011;12542;50.924;4.516;2023-08-01T08:26:12;7.47;;;4.00;;
24407;SDS011;12542;50.924;4.516;2023-08-01T08:28:38;11.98;;;4.50;;
24407;SDS011;12542;50.924;4.516;2023-08-01T08:31:04;9.32;;;4.13;;
24407;SDS011;12542;50.924;4.516;2023-08-01T08:33:30;9.45;;;3.72;;
24407;SDS011;12542;50.924;4.516;2023-08-01T08:35:56;11.00;;;4.22;;
24407;SDS011;12542;50.924;4.516;2023-08-01T08:38:21;11.55;;;3.63;;
24407;SDS011;12542;50.924;4.516;2023-08-01T08:43:35;9.63;;;3.15;;
24407;SDS011;12542;50.924;4.516;2023-08-01T08:46:02;8.23;;;3.17;;
24407;SDS011;12542;50.924;4.516;2023-08-01T08:48:29;10.82;;;2.75;;
24407;SDS011;12542;50.924;4.516;2023-08-01T08:50:59;6.78;;;2.72;;
24407;SDS011;12542;50.924;4.516;2023-08-01T08:53:26;7.93;;;2.42;;
24407;SDS011;12542;50.924;4.516;2023-08-01T08:55:52;10.13;;;2.30;;
24407;SDS011;12542;50.924;4.516;2023-08-01T08:58:18;6.68;;;2.25;;
24407;SDS011;12542;50.924;4.516;2023-08-01T09:00:44;8.50;;;2.47;;
24407;SDS011;12542;50.924;4.516;2023-08-01T09:03:09;9.60;;;2.70;;
24407;SDS011;12542;50.924;4.516;2023-08-01T09:05:45;10.48;;;2.40;;
24407;SDS011;12542;50.924;4.516;2023-08-01T09:08:18;7.57;;;2.60;;
24407;SDS011;12542;50.924;4.516;2023-08-01T09:10:45;10.27;;;3.15;;
24407;SDS011;12542;50.924;4.516;2023-08-01T09:13:14;7.95;;;2.60;;
24407;SDS011;12542;50.924;4.516;2023-08-01T09:15:40;8.40;;;2.20;;
24407;SDS011;12542;50.924;4.516;2023-08-01T09:18:10;9.32;;;3.22;;
24407;SDS011;12542;50.924;4.516;2023-08-01T09:20:45;7.13;;;2.60;;
24407;SDS011;12542;50.924;4.516;2023-08-01T09:23:12;7.78;;;2.22;;
24407;SDS011;12542;50.924;4.516;2023-08-01T09:25:39;6.07;;;2.30;;
24407;SDS011;12542;50.924;4.516;2023-08-01T09:28:22;9.10;;;2.20;;
24407;SDS011;12542;50.924;4.516;2023-08-01T09:30:49;7.10;;;2.25;;
24407;SDS011;12542;50.924;4.516;2023-08-01T09:33:16;6.28;;;2.10;;
24407;SDS011;12542;50.924;4.516;2023-08-01T09:35:42;7.50;;;2.17;;
24407;SDS011;12542;50.924;4.516;2023-08-01T09:38:09;6.53;;;2.22;;
24407;SDS011;12542;50.924;4.516;2023-08-01T09:40:37;8.70;;;2.70;;
24407;SDS011;12542;50.924;4.516;2023-08-01T09:43:03;6.38;;;2.97;;
24407;SDS011;12542;50.924;4.516;2023-08-01T09:45:29;7.70;;;2.30;;
24407;SDS011;12542;50.924;4.516;2023-08-01T09:47:55;8.00;;;2.50;;
24407;SDS011;12542;50.924;4.516;2023-08-01T09:50:21;6.10;;;1.88;;
24407;SDS011;12542;50.924;4.516;2023-08-01T09:52:48;5.03;;;1.80;;
24407;SDS011;12542;50.924;4.516;2023-08-01T09:55:33;5.32;;;2.05;;
24407;SDS011;12542;50.924;4.516;2023-08-01T09:58:00;6.97;;;2.15;;
24407;SDS011;12542;50.924;4.516;2023-08-01T10:00:26;5.20;;;2.03;;
24407;SDS011;12542;50.924;4.516;2023-08-01T10:02:52;11.45;;;2.38;;
24407;SDS011;12542;50.924;4.516;2023-08-01T10:05:20;7.65;;;2.33;;
24407;SDS011;12542;50.924;4.516;2023-08-01T10:07:47;6.30;;;2.55;;
24407;SDS011;12542;50.924;4.516;2023-08-01T10:10:18;7.57;;;2.35;;
24407;SDS011;12542;50.924;4.516;2023-08-01T10:12:45;8.43;;;2.05;;
24407;SDS011;12542;50.924;4.516;2023-08-01T10:15:13;7.78;;;2.58;;
24407;SDS011;12542;50.924;4.516;2023-08-01T10:17:40;9.48;;;2.47;;
24407;SDS011;12542;50.924;4.516;2023-08-01T10:20:07;7.70;;;2.60;;
24407;SDS011;12542;50.924;4.516;2023-08-01T10:22:33;7.35;;;2.50;;
24407;SDS011;12542;50.924;4.516;2023-08-01T10:25:00;6.00;;;2.60;;
24407;SDS011;12542;50.924;4.516;2023-08-01T10:27:26;6.70;;;2.90;;
24407;SDS011;12542;50.924;4.516;2023-08-01T10:29:58;3.70;;;2.30;;
24407;SDS011;12542;50.924;4.516;2023-08-01T10:32:35;5.25;;;2.35;;
24407;SDS011;12542;50.924;4.516;2023-08-01T10:35:02;7.32;;;2.35;;
24407;SDS011;12542;50.924;4.516;2023-08-01T10:37:42;7.60;;;2.38;;
24407;SDS011;12542;50.924;4.516;2023-08-01T10:40:09;5.70;;;2.10;;
24407;SDS011;12542;50.924;4.516;2023-08-01T10:42:42;9.77;;;3.13;;
24407;SDS011;12542;50.924;4.516;2023-08-01T10:45:20;5.18;;;2.42;;
24407;SDS011;12542;50.924;4.516;2023-08-01T10:47:48;5.35;;;2.03;;
24407;SDS011;12542;50.924;4.516;2023-08-01T10:50:14;3.97;;;1.85;;
24407;SDS011;12542;50.924;4.516;2023-08-01T10:52:41;6.13;;;1.85;;
24407;SDS011;12542;50.924;4.516;2023-08-01T10:55:07;6.43;;;2.22;;
24407;SDS011;12542;50.924;4.516;2023-08-01T10:57:38;7.13;;;2.10;;
24407;SDS011;12542;50.924;4.516;2023-08-01T11:00:05;7.38;;;2.10;;
24407;SDS011;12542;50.924;4.516;2023-08-01T11:02:35;7.50;;;2.22;;
24407;SDS011;12542;50.924;4.516;2023-08-01T11:05:02;5.38;;;1.58;;
24407;SDS011;12542;50.924;4.516;2023-08-01T11:07:28;4.30;;;1.80;;
24407;SDS011;12542;50.924;4.516;2023-08-01T11:12:40;5.87;;;1.60;;
24407;SDS011;12542;50.924;4.516;2023-08-01T11:15:08;7.95;;;1.40;;
24407;SDS011;12542;50.924;4.516;2023-08-01T11:17:39;5.70;;;1.63;;
24407;SDS011;12542;50.924;4.516;2023-08-01T11:20:06;5.07;;;1.52;;
24407;SDS011;12542;50.924;4.516;2023-08-01T11:22:34;5.15;;;1.70;;
24407;SDS011;12542;50.924;4.516;2023-08-01T11:25:00;7.53;;;1.95;;
24407;SDS011;12542;50.924;4.516;2023-08-01T11:27:26;5.00;;;1.80;;
24407;SDS011;12542;50.924;4.516;2023-08-01T11:29:52;6.28;;;1.45;;
24407;SDS011;12542;50.924;4.516;2023-08-01T11:32:18;5.68;;;2.13;;
24407;SDS011;12542;50.924;4.516;2023-08-01T11:34:48;6.35;;;2.15;;
24407;SDS011;12542;50.924;4.516;2023-08-01T11:37:15;4.03;;;1.63;;
24407;SDS011;12542;50.924;4.516;2023-08-01T11:39:45;4.25;;;1.63;;
24407;SDS011;12542;50.924;4.516;2023-08-01T11:42:15;8.00;;;2.13;;
24407;SDS011;12542;50.924;4.516;2023-08-01T11:44:42;5.70;;;1.80;;
24407;SDS011;12542;50.924;4.516;2023-08-01T11:47:15;9.52;;;1.52;;
24407;SDS011;12542;50.924;4.516;2023-08-01T11:49:45;6.25;;;1.52;;
24407;SDS011;12542;50.924;4.516;2023-08-01T11:52:25;5.10;;;1.77;;
24407;SDS011;12542;50.924;4.516;2023-08-01T11:54:51;7.22;;;1.83;;
24407;SDS011;12542;50.924;4.516;2023-08-01T11:57:19;9.00;;;2.10;;
24407;SDS011;12542;50.924;4.516;2023-08-01T11:59:55;8.45;;;1.90;;
24407;SDS011;12542;50.924;4.516;2023-08-01T12:04:52;5.60;;;1.75;;
24407;SDS011;12542;50.924;4.516;2023-08-01T12:07:18;5.57;;;1.40;;
24407;SDS011;12542;50.924;4.516;2023-08-01T12:09:54;5.30;;;1.70;;
24407;SDS011;12542;50.924;4.516;2023-08-01T12:12:26;9.70;;;1.58;;
24407;SDS011;12542;50.924;4.516;2023-08-01T12:14:52;5.70;;;1.50;;
24407;SDS011;12542;50.924;4.516;2023-08-01T12:17:19;3.10;;;0.90;;
24407;SDS011;12542;50.924;4.516;2023-08-01T12:19:45;6.30;;;1.50;;
24407;SDS011;12542;50.924;4.516;2023-08-01T12:22:11;3.83;;;1.13;;
24407;SDS011;12542;50.924;4.516;2023-08-01T12:24:37;3.58;;;1.00;;
24407;SDS011;12542;50.924;4.516;2023-08-01T12:27:12;2.70;;;0.98;;
24407;SDS011;12542;50.924;4.516;2023-08-01T12:29:38;6.97;;;1.05;;
24407;SDS011;12542;50.924;4.516;2023-08-01T12:32:04;6.32;;;1.05;;
24407;SDS011;12542;50.924;4.516;2023-08-01T12:34:31;6.68;;;1.00;;
24407;SDS011;12542;50.924;4.516;2023-08-01T12:36:57;3.45;;;0.90;;
24407;SDS011;12542;50.924;4.516;2023-08-01T12:42:46;5.03;;;1.90;;
24407;SDS011;12542;50.924;4.516;2023-08-01T12:45:12;5.45;;;1.40;;
24407;SDS011;12542;50.924;4.516;2023-08-01T12:47:37;3.65;;;0.90;;
24407;SDS011;12542;50.924;4.516;2023-08-01T12:50:03;7.30;;;1.40;;
24407;SDS011;12542;50.924;4.516;2023-08-01T12:52:30;2.97;;;0.70;;
24407;SDS011;12542;50.924;4.516;2023-08-01T12:54:55;3.80;;;1.30;;
24407;SDS011;12542;50.924;4.516;2023-08-01T12:57:21;9.13;;;1.00;;
24407;SDS011;12542;50.924;4.516;2023-08-01T12:59:47;3.22;;;1.10;;
24407;SDS011;12542;50.924;4.516;2023-08-01T13:02:13;7.60;;;1.40;;
24407;SDS011;12542;50.924;4.516;2023-08-01T13:04:39;5.43;;;1.08;;
24407;SDS011;12542;50.924;4.516;2023-08-01T13:07:05;3.65;;;1.10;;
24407;SDS011;12542;50.924;4.516;2023-08-01T13:09:30;4.22;;;1.02;;
24407;SDS011;12542;50.924;4.516;2023-08-01T13:11:56;6.10;;;0.90;;
24407;SDS011;12542;50.924;4.516;2023-08-01T13:14:24;4.53;;;0.90;;
24407;SDS011;12542;50.924;4.516;2023-08-01T13:16:51;3.92;;;1.00;;
24407;SDS011;12542;50.924;4.516;2023-08-01T13:19:17;6.30;;;1.15;;
24407;SDS011;12542;50.924;4.516;2023-08-01T13:21:43;3.85;;;0.95;;
24407;SDS011;12542;50.924;4.516;2023-08-01T13:24:09;4.15;;;1.23;;
24407;SDS011;12542;50.924;4.516;2023-08-01T13:26:35;3.75;;;1.10;;
24407;SDS011;12542;50.924;4.516;2023-08-01T13:29:01;4.60;;;1.15;;
24407;SDS011;12542;50.924;4.516;2023-08-01T13:31:27;5.60;;;1.08;;
24407;SDS011;12542;50.924;4.516;2023-08-01T13:33:54;3.15;;;1.23;;
24407;SDS011;12542;50.924;4.516;2023-08-01T13:36:23;6.80;;;1.48;;
24407;SDS011;12542;50.924;4.516;2023-08-01T13:38:49;5.97;;;1.70;;
24407;SDS011;12542;50.924;4.516;2023-08-01T13:41:15;3.22;;;1.23;;
24407;SDS011;12542;50.924;4.516;2023-08-01T13:43:40;5.00;;;1.20;;
24407;SDS011;12542;50.924;4.516;2023-08-01T13:46:11;5.72;;;1.00;;
24407;SDS011;12542;50.924;4.516;2023-08-01T13:48:38;3.92;;;1.23;;
24407;SDS011;12542;50.924;4.516;2023-08-01T13:51:04;3.92;;;1.25;;
24407;SDS011;12542;50.924;4.516;2023-08-01T13:53:29;4.00;;;1.35;;
24407;SDS011;12542;50.924;4.516;2023-08-01T13:55:55;8.63;;;1.45;;
24407;SDS011;12542;50.924;4.516;2023-08-01T13:58:21;4.85;;;1.25;;
24407;SDS011;12542;50.924;4.516;2023-08-01T14:00:46;6.65;;;1.20;;
24407;SDS011;12542;50.924;4.516;2023-08-01T14:03:12;5.35;;;1.35;;
24407;SDS011;12542;50.924;4.516;2023-08-01T14:05:38;6.47;;;1.60;;
24407;SDS011;12542;50.924;4.516;2023-08-01T14:08:06;4.90;;;1.27;;
24407;SDS011;12542;50.924;4.516;2023-08-01T14:10:31;8.65;;;1.55;;
24407;SDS011;12542;50.924;4.516;2023-08-01T14:12:57;8.70;;;1.83;;
24407;SDS011;12542;50.924;4.516;2023-08-01T14:15:23;5.88;;;1.35;;
24407;SDS011;12542;50.924;4.516;2023-08-01T14:17:48;7.70;;;1.58;;
24407;SDS011;12542;50.924;4.516;2023-08-01T14:20:16;4.93;;;1.63;;
24407;SDS011;12542;50.924;4.516;2023-08-01T14:22:42;7.43;;;1.50;;
24407;SDS011;12542;50.924;4.516;2023-08-01T14:25:08;6.97;;;1.40;;
24407;SDS011;12542;50.924;4.516;2023-08-01T14:27:34;4.00;;;1.30;;
24407;SDS011;12542;50.924;4.516;2023-08-01T14:30:00;6.40;;;1.30;;
24407;SDS011;12542;50.924;4.516;2023-08-01T14:32:27;5.55;;;1.02;;
24407;SDS011;12542;50.924;4.516;2023-08-01T14:34:52;4.10;;;1.08;;
24407;SDS011;12542;50.924;4.516;2023-08-01T14:37:18;6.78;;;1.23;;
24407;SDS011;12542;50.924;4.516;2023-08-01T14:39:44;5.82;;;1.38;;
24407;SDS011;12542;50.924;4.516;2023-08-01T14:42:09;4.72;;;1.33;;
24407;SDS011;12542;50.924;4.516;2023-08-01T14:44:35;4.93;;;1.20;;
24407;SDS011;12542;50.924;4.516;2023-08-01T14:47:01;7.13;;;2.08;;
24407;SDS011;12542;50.924;4.516;2023-08-01T14:49:26;5.88;;;1.27;;
24407;SDS011;12542;50.924;4.516;2023-08-01T14:51:54;5.03;;;1.10;;